createdAt,value
2019-03-15T00:00:26.309Z,13.53
2019-03-15T00:04:31.704Z,15.63
2019-03-15T00:08:36.979Z,19.85
2019-03-15T00:12:42.127Z,13.83
2019-03-15T00:16:47.027Z,11.15
2019-03-15T00:20:51.699Z,12.70
2019-03-15T00:24:56.600Z,18.77
2019-03-15T00:29:01.519Z,14.63
2019-03-15T00:33:06.233Z,17.48
2019-03-15T00:37:10.863Z,16.80
2019-03-15T00:41:15.599Z,18.67
2019-03-15T00:45:20.198Z,12.68
2019-03-15T00:49:28.804Z,10.95
2019-03-15T00:53:34.102Z,14.63
2019-03-15T00:57:38.691Z,16.00
2019-03-15T01:01:43.577Z,16.90
2019-03-15T01:05:48.810Z,10.98
2019-03-15T01:09:53.801Z,15.38
2019-03-15T01:13:58.841Z,12.45
2019-03-15T01:18:03.698Z,11.45
2019-03-15T01:22:08.265Z,13.62
2019-03-15T01:26:12.983Z,12.05
2019-03-15T01:30:17.620Z,9.93
2019-03-15T01:34:22.239Z,10.32
2019-03-15T01:38:27.140Z,13.20
2019-03-15T01:42:31.700Z,12.53
2019-03-15T01:46:37.187Z,14.33
2019-03-15T01:50:42.289Z,11.15
2019-03-15T01:54:47.145Z,17.17
2019-03-15T01:58:52.340Z,19.67
2019-03-15T02:02:57.340Z,11.43
2019-03-15T02:07:01.937Z,18.37
2019-03-15T02:11:06.552Z,13.70
2019-03-15T02:15:11.274Z,18.82
2019-03-15T02:19:15.987Z,18.82
2019-03-15T02:23:20.571Z,12.90
2019-03-15T02:27:25.787Z,18.70
2019-03-15T02:31:30.954Z,15.45
2019-03-15T02:35:35.569Z,16.60
2019-03-15T02:39:41.168Z,13.88
2019-03-15T02:43:46.179Z,13.48
2019-03-15T02:47:51.288Z,14.15
2019-03-15T02:51:56.657Z,16.77
2019-03-15T02:56:02.277Z,10.78
2019-03-15T03:00:08.347Z,13.30
2019-03-15T03:04:14.071Z,18.82
2019-03-15T03:08:19.908Z,12.82
2019-03-15T03:12:24.928Z,10.00
2019-03-15T03:16:29.520Z,13.00
2019-03-15T03:20:34.142Z,11.70
2019-03-15T03:24:39.051Z,12.37
2019-03-15T03:28:43.747Z,15.35
2019-03-15T03:32:48.371Z,14.50
2019-03-15T03:36:57.639Z,10.60
2019-03-15T03:41:01.706Z,8.60
2019-03-15T03:45:06.510Z,17.20
2019-03-15T03:49:11.838Z,10.32
2019-03-15T03:53:16.873Z,9.68
2019-03-15T03:57:21.815Z,9.80
2019-03-15T04:01:26.970Z,9.15
2019-03-15T04:05:32.123Z,10.60
2019-03-15T04:09:37.682Z,9.63
2019-03-15T04:13:42.323Z,12.25
2019-03-15T04:17:47.230Z,11.78
2019-03-15T04:21:51.963Z,13.48
2019-03-15T04:25:59.597Z,10.35
2019-03-15T04:30:08.761Z,7.53
2019-03-15T04:34:13.185Z,11.55
2019-03-15T04:38:18.027Z,16.75
2019-03-15T04:42:23.000Z,11.28
2019-03-15T04:46:27.654Z,10.20
2019-03-15T04:50:32.273Z,8.75
2019-03-15T04:54:37.361Z,10.53
2019-03-15T04:58:42.669Z,11.12
2019-03-15T05:02:47.620Z,9.05
2019-03-15T05:06:52.298Z,11.15
2019-03-15T05:10:57.654Z,10.45
2019-03-15T05:15:02.306Z,8.35
2019-03-15T05:19:06.879Z,8.20
2019-03-15T05:23:11.819Z,10.88
2019-03-15T05:27:17.056Z,9.08
2019-03-15T05:31:21.673Z,10.75
2019-03-15T05:35:26.628Z,7.60
2019-03-15T05:39:31.795Z,8.65
2019-03-15T05:43:37.248Z,10.20
2019-03-15T05:47:42.295Z,11.60
2019-03-15T05:51:47.337Z,10.13
2019-03-15T05:55:52.031Z,11.12
2019-03-15T05:59:56.999Z,9.73
2019-03-15T06:04:01.564Z,10.72
2019-03-15T06:08:06.504Z,10.28
2019-03-15T06:12:12.028Z,14.25
2019-03-15T06:16:17.441Z,12.53
2019-03-15T06:20:22.054Z,14.47
2019-03-15T06:24:27.010Z,12.37
2019-03-15T06:28:32.364Z,10.55
2019-03-15T06:32:37.310Z,12.33
2019-03-15T06:36:42.023Z,11.28
2019-03-15T06:40:46.686Z,12.28
2019-03-15T06:44:58.058Z,13.08
2019-03-15T06:48:58.852Z,11.43
2019-03-15T06:53:03.892Z,10.38
2019-03-15T06:57:08.490Z,12.73
2019-03-15T07:01:13.458Z,13.83
2019-03-15T07:05:20.706Z,14.43
2019-03-15T07:09:26.004Z,11.57
2019-03-15T07:13:30.952Z,15.03
2019-03-15T07:17:36.915Z,15.90
2019-03-15T07:21:42.176Z,12.70
2019-03-15T07:25:46.980Z,14.58
2019-03-15T07:29:51.838Z,18.57
2019-03-15T07:33:57.359Z,12.45
2019-03-15T07:38:02.639Z,13.40
2019-03-15T07:42:07.590Z,16.27
2019-03-15T07:46:12.776Z,11.68
2019-03-15T07:50:17.692Z,13.72
2019-03-15T07:54:22.400Z,13.43
2019-03-15T07:58:27.141Z,16.25
2019-03-15T08:02:31.895Z,10.35
2019-03-15T08:06:37.186Z,13.90
2019-03-15T08:10:42.185Z,11.15
2019-03-15T08:14:47.232Z,15.40
2019-03-15T08:18:52.352Z,13.32
2019-03-15T08:22:57.202Z,16.17
2019-03-15T08:27:01.821Z,11.38
2019-03-15T08:31:06.821Z,10.23
2019-03-15T08:35:11.898Z,10.35
2019-03-15T08:39:16.835Z,14.25
2019-03-15T08:43:22.700Z,12.00
2019-03-15T08:47:27.372Z,13.25
2019-03-15T08:51:33.381Z,17.48
2019-03-15T08:55:39.841Z,14.50
2019-03-15T08:59:55.588Z,15.88
2019-03-15T09:03:51.701Z,11.18
2019-03-15T09:07:56.343Z,15.65
2019-03-15T09:12:01.023Z,18.00
2019-03-15T09:16:05.701Z,13.53
2019-03-15T09:20:11.234Z,15.65
2019-03-15T09:24:15.853Z,15.25
2019-03-15T09:28:20.835Z,19.00
2019-03-15T09:32:26.193Z,20.70
2019-03-15T09:36:33.894Z,12.40
2019-03-15T09:40:38.223Z,13.20
2019-03-15T09:44:43.036Z,14.70
2019-03-15T09:48:47.944Z,20.00
2019-03-15T09:52:52.871Z,17.27
2019-03-15T09:56:57.516Z,15.38
2019-03-15T10:01:02.634Z,15.75
2019-03-15T10:05:11.617Z,13.98
2019-03-15T10:09:16.485Z,22.58
2019-03-15T10:13:21.467Z,18.12
2019-03-15T10:17:26.512Z,19.17
2019-03-15T10:21:31.570Z,11.35
2019-03-15T10:25:46.650Z,12.35
2019-03-15T10:29:43.477Z,18.20
2019-03-15T10:33:50.725Z,11.68
2019-03-15T10:37:55.228Z,13.70
2019-03-15T10:42:00.045Z,19.20
2019-03-15T10:46:06.111Z,14.23
2019-03-15T10:50:12.398Z,16.62
2019-03-15T10:54:17.018Z,17.82
2019-03-15T10:58:22.451Z,16.77
2019-03-15T11:02:27.052Z,13.58
2019-03-15T11:06:32.163Z,14.18
2019-03-15T11:10:37.208Z,16.35
2019-03-15T11:14:42.080Z,18.30
2019-03-15T11:18:46.748Z,13.98
2019-03-15T11:22:51.369Z,14.05
2019-03-15T11:26:56.348Z,14.87
2019-03-15T11:31:00.965Z,10.65
2019-03-15T11:35:06.679Z,11.33
2019-03-15T11:39:11.386Z,11.90
2019-03-15T11:43:16.416Z,12.68
2019-03-15T11:47:21.048Z,11.22
2019-03-15T11:51:26.360Z,15.25
2019-03-15T11:55:31.196Z,14.13
2019-03-15T11:59:36.520Z,16.27
2019-03-15T12:03:52.518Z,11.80
2019-03-15T12:07:48.340Z,14.63
2019-03-15T12:11:53.470Z,11.95
2019-03-15T12:15:59.373Z,15.68
2019-03-15T12:20:05.597Z,18.85
2019-03-15T12:24:11.385Z,15.48
2019-03-15T12:28:16.985Z,16.27
2019-03-15T12:32:23.798Z,13.98
2019-03-15T12:36:29.020Z,13.32
2019-03-15T12:40:34.456Z,11.03
2019-03-15T12:44:39.776Z,14.03
2019-03-15T12:48:45.050Z,16.57
2019-03-15T12:52:49.708Z,20.55
2019-03-15T12:56:54.376Z,11.40
2019-03-15T13:00:59.080Z,14.00
2019-03-15T13:05:04.041Z,11.85
2019-03-15T13:09:09.357Z,11.88
2019-03-15T13:13:14.400Z,9.78
2019-03-15T13:17:19.074Z,10.53
2019-03-15T13:21:24.701Z,10.32
2019-03-15T13:25:29.850Z,10.65
2019-03-15T13:29:35.297Z,10.13
2019-03-15T13:33:40.091Z,12.63
2019-03-15T13:37:44.794Z,12.53
2019-03-15T13:41:49.420Z,7.87
2019-03-15T13:45:54.764Z,7.08
2019-03-15T13:49:59.828Z,9.58
2019-03-15T13:54:05.258Z,6.83
2019-03-15T13:58:10.305Z,9.25
2019-03-15T14:02:14.997Z,6.80
2019-03-15T14:06:19.868Z,6.47
2019-03-15T14:10:24.810Z,8.33
2019-03-15T14:14:29.650Z,6.70
2019-03-15T14:18:34.654Z,6.25
2019-03-15T14:22:39.443Z,12.20
2019-03-15T14:26:50.759Z,6.53
2019-03-15T14:30:54.420Z,17.50
2019-03-15T14:35:02.117Z,9.98
2019-03-15T14:39:07.200Z,14.30
2019-03-15T14:43:12.979Z,11.28
2019-03-15T14:47:18.530Z,8.90
2019-03-15T14:51:23.347Z,10.55
2019-03-15T14:55:27.932Z,12.55
2019-03-15T14:59:36.103Z,11.18
2019-03-15T15:03:40.811Z,10.32
2019-03-15T15:07:45.921Z,12.80
2019-03-15T15:11:52.157Z,12.58
2019-03-15T15:15:56.836Z,11.30
2019-03-15T15:20:09.691Z,12.98
2019-03-15T15:24:14.643Z,12.47
2019-03-15T15:28:19.266Z,10.15
2019-03-15T15:32:24.280Z,13.65
2019-03-15T15:36:29.308Z,10.35
2019-03-15T15:40:34.295Z,9.40
2019-03-15T15:44:39.315Z,10.70
2019-03-15T15:48:44.064Z,10.72
2019-03-15T15:52:48.977Z,10.95
2019-03-15T15:56:53.749Z,7.30
2019-03-15T16:00:58.468Z,9.38
2019-03-15T16:05:04.034Z,8.38
2019-03-15T16:09:10.525Z,8.95
2019-03-15T16:13:18.240Z,9.50
2019-03-15T16:17:21.618Z,6.78
2019-03-15T16:21:26.304Z,6.62
2019-03-15T16:25:31.574Z,5.15
2019-03-15T16:29:37.322Z,11.50
2019-03-15T16:33:42.653Z,7.87
2019-03-15T16:37:47.676Z,8.20
2019-03-15T16:41:52.517Z,8.23
2019-03-15T16:45:57.234Z,11.35
2019-03-15T16:50:03.754Z,11.15
2019-03-15T16:54:08.580Z,10.95
2019-03-15T16:58:13.648Z,10.43
2019-03-15T17:02:18.468Z,13.70
2019-03-15T17:06:24.630Z,9.65
2019-03-15T17:10:29.287Z,5.70
2019-03-15T17:14:34.299Z,5.60
2019-03-15T17:18:39.480Z,7.85
2019-03-15T17:22:44.380Z,7.25
2019-03-15T17:26:51.726Z,7.15
2019-03-15T17:31:09.186Z,12.45
2019-03-15T17:35:10.812Z,8.05
2019-03-15T17:39:17.720Z,9.90
2019-03-15T17:43:24.083Z,9.53
2019-03-15T17:47:29.263Z,4.85
2019-03-15T17:51:34.386Z,7.97
2019-03-15T17:55:40.155Z,3.72
2019-03-15T18:00:10.612Z,3.33
2019-03-15T18:04:15.773Z,6.28
2019-03-15T18:08:26.479Z,4.08
2019-03-15T18:12:31.414Z,3.62
2019-03-15T18:16:36.400Z,4.40
2019-03-15T18:20:41.039Z,3.55
2019-03-15T18:24:46.256Z,6.87
2019-03-15T18:28:51.278Z,6.78
2019-03-15T18:32:56.280Z,4.80
2019-03-15T18:37:01.029Z,5.55
2019-03-15T18:41:07.257Z,3.70
2019-03-15T18:45:14.048Z,5.25
2019-03-15T18:49:19.007Z,5.87
2019-03-15T18:53:27.092Z,5.33
2019-03-15T18:57:32.289Z,6.42
2019-03-15T19:01:36.948Z,3.42
2019-03-15T19:05:41.850Z,6.37
2019-03-15T19:09:47.044Z,7.50
2019-03-15T19:13:52.973Z,7.35
2019-03-15T19:17:57.919Z,6.92
2019-03-15T19:22:02.527Z,7.40
2019-03-15T19:26:07.448Z,4.47
2019-03-15T19:30:13.386Z,4.17
2019-03-15T19:34:18.413Z,3.80
2019-03-15T19:38:23.810Z,5.47
2019-03-15T19:42:29.362Z,4.35
2019-03-15T19:46:33.937Z,6.47
2019-03-15T19:50:39.219Z,2.87
2019-03-15T19:54:44.967Z,6.30
2019-03-15T19:58:49.697Z,5.85
2019-03-15T20:02:54.982Z,4.53
2019-03-15T20:07:00.022Z,7.97
2019-03-15T20:11:04.721Z,7.12
2019-03-15T20:15:10.517Z,5.17
2019-03-15T20:19:16.021Z,6.47
2019-03-15T20:23:20.631Z,7.10
2019-03-15T20:27:26.071Z,9.43
2019-03-15T20:31:30.796Z,5.87
2019-03-15T20:35:35.572Z,6.28
2019-03-15T20:39:40.419Z,9.63
2019-03-15T20:43:45.451Z,6.70
2019-03-15T20:47:50.102Z,7.17
2019-03-15T20:51:55.204Z,6.75
2019-03-15T20:56:00.110Z,7.22
2019-03-15T21:00:05.808Z,8.35
2019-03-15T21:04:12.420Z,6.67
2019-03-15T21:08:17.389Z,11.20
2019-03-15T21:12:22.107Z,6.25
2019-03-15T21:16:27.053Z,11.10
2019-03-15T21:20:31.622Z,8.53
2019-03-15T21:24:36.539Z,15.53
2019-03-15T21:28:41.491Z,10.20
2019-03-15T21:32:46.812Z,11.05
2019-03-15T21:36:51.451Z,9.63
2019-03-15T21:40:56.425Z,10.43
2019-03-15T21:45:02.496Z,6.42
2019-03-15T21:49:07.137Z,7.58
2019-03-15T21:53:12.075Z,11.60
2019-03-15T21:57:16.800Z,7.83
2019-03-15T22:01:21.759Z,11.50
2019-03-15T22:05:26.788Z,13.98
2019-03-15T22:09:31.498Z,8.08
2019-03-15T22:13:37.564Z,9.63
2019-03-15T22:17:42.338Z,14.18
2019-03-15T22:21:47.358Z,13.75
2019-03-15T22:25:53.583Z,12.88
2019-03-15T22:29:59.954Z,9.85
2019-03-15T22:34:04.913Z,12.40
2019-03-15T22:38:10.706Z,12.60
2019-03-15T22:42:16.133Z,9.93
2019-03-15T22:46:21.682Z,12.20
2019-03-15T22:50:28.239Z,10.60
2019-03-15T22:54:33.459Z,17.27
2019-03-15T22:58:38.813Z,14.53
2019-03-15T23:02:43.729Z,12.43
2019-03-15T23:06:48.640Z,14.78
2019-03-15T23:10:53.520Z,17.12
2019-03-15T23:14:58.169Z,11.33
2019-03-15T23:19:02.813Z,11.90
2019-03-15T23:23:07.548Z,11.55
2019-03-15T23:27:12.526Z,13.10
2019-03-15T23:31:18.416Z,11.15
2019-03-15T23:35:24.414Z,18.52
2019-03-15T23:39:29.350Z,14.75
2019-03-15T23:43:34.440Z,12.28
2019-03-15T23:47:39.179Z,9.35
2019-03-15T23:51:44.902Z,11.70
2019-03-15T23:55:49.613Z,11.28
2019-03-15T23:59:54.535Z,12.15
